• Join FlightAware (Why Join?)
  • Login
  • US Flag 
04:17AM EDT


 

Airport Tracker/Info


-or-


 

Live Flight TrackerFlight Track Log ✈ ASQ5740 ✈ 15-Nov-2013 ✈ KGSP - KIAD

Flight Track Log - Related Links

Times and Time Zones

All times are in EST time to prevent confusion due to time zone crossing. See the ASQ5740 flight status page for this flight to view local times or setup timezone preferences in your user account.

Time Position Orientation Groundspeed Altitude Reporting Facility
EST Latitude Longitude Course Direction KTS MPH feet Rate Location/Type
02:57PM 34.8567 -82.1481 64° Northeast 124 143 6,700  Level Atlanta Center
02:58PM 34.9158 -82.0731 46° Northeast 204 235 9,100 2,400 Climbing Atlanta Center
02:59PM 34.9814 -81.9981 43° Northeast 270 311 11,500 2,400 Climbing Atlanta Center
03:00PM 35.0533 -81.9278 39° Northeast 302 348 13,900 2,280 Climbing Atlanta Center
03:01PM 35.1369 -81.9383 354° North 302 348 16,100 1,740 Climbing Atlanta Center
03:02PM 35.2308 -81.9411 359° North 314 361 17,400 960 Climbing Atlanta Center
03:03PM 35.3286 -81.9131 13° North 340 391 18,100 840 Climbing Atlanta Center
03:04PM 35.3806 -81.7972 61° Northeast 341 392 19,100 1,020 Climbing Atlanta Center
03:05PM 35.4325 -81.6658 64° Northeast 381 438 20,200 900 Climbing Atlanta Center
03:06PM 35.4819 -81.5367 65° Northeast 396 456 21,000 780 Climbing Atlanta Center
03:07PM 35.5314 -81.3975 66° East 414 476 21,800 780 Climbing Atlanta Center
03:08PM 35.5881 -81.2347 67° East 431 496 22,600 600 Climbing Atlanta Center
03:09PM 35.6353 -81.1053 66° East 455 524 23,000 180 Climbing Atlanta Center
03:10PM 35.6878 -80.9553 67° East 461 531 23,000  Level Atlanta Center
03:11PM 35.7467 -80.8097 63° Northeast 466 536 23,000  Level Atlanta Center
03:12PM 35.7969 -80.6644 67° East 466 536 23,000  Level Atlanta Center
03:13PM 35.8531 -80.5006 67° East 466 536 23,100 600 Climbing Atlanta Center
03:14PM 35.9053 -80.3625 65° Northeast 450 518 24,200 600 Climbing Atlanta Center
03:16PM 36.0117 -80.0703 66° East 458 527 25,000 240 Climbing Washington Center
03:17PM 36.0733 -79.9275 62° Northeast 463 533 25,000  Level Washington Center
03:18PM 36.1511 -79.7928 54° Northeast 469 540 25,000 -120 Level Washington Center
03:19PM 36.2356 -79.6428 55° Northeast 481 554 24,800 -540 Descending Washington Center
03:20PM 36.3111 -79.5100 55° Northeast 476 548 24,000 -960 Descending Washington Center
03:21PM 36.3842 -79.3769 56° Northeast 464 534 23,000 -540 Descending Washington Center
03:22PM 36.4569 -79.2486 55° Northeast 458 527 23,000  Level Washington Center
03:23PM 36.5275 -79.1228 55° Northeast 447 514 23,000 -420 Level Washington Center
03:24PM 36.5981 -78.9942 56° Northeast 442 509 22,200 -900 Descending Washington Center
03:25PM 36.6572 -78.8931 54° Northeast 442 509 21,200 -600 Descending Washington Center
03:26PM 36.7364 -78.7408 57° Northeast 454 522 21,000 -120 Descending Washington Center
03:27PM 36.8064 -78.6114 56° Northeast 454 522 21,000  Level Washington Center
03:28PM 36.8850 -78.4742 54° Northeast 449 517 21,000  Level Washington Center
03:29PM 36.9550 -78.3417 57° Northeast 444 511 21,000  Level Washington Center
03:30PM 37.0286 -78.2169 54° Northeast 444 511 21,000  Level Washington Center
03:31PM 37.1306 -78.1344 33° Northeast 439 505 21,000  Level Washington Center
03:32PM 37.2344 -78.0569 31° Northeast 434 499 21,000  Level Washington Center
03:33PM 37.3361 -77.9767 32° Northeast 429 494 21,000  Level Washington Center
03:34PM 37.4294 -77.9039 32° Northeast 418 481 21,000  Level Washington Center
03:35PM 37.5161 -77.8383 31° Northeast 386 444 21,000  Level Washington Center
03:36PM 37.6089 -77.7833 25° Northeast 369 425 21,000  Level Washington Center
03:37PM 37.6994 -77.7308 25° Northeast 357 411 21,000 -900 Level Washington Center
03:38PM 37.7956 -77.7336 359° North 340 391 19,300 -1,620 Descending Washington Center
03:39PM 37.8847 -77.7492 352° North 329 379 17,800 -1,740 Descending Washington Center
03:40PM 37.9650 -77.6961 28° Northeast 313 360 15,800 -1,920 Descending Washington Center
03:41PM 38.0203 -77.6292 44° Northeast 313 360 14,100 -1,980 Descending Washington Center
03:42PM 38.0969 -77.5442 41° Northeast 319 367 11,900 -1,920 Descending Washington Center
03:43PM 38.1628 -77.4694 42° Northeast 324 373 10,200 -900 Descending Washington Center
03:44PM 38.2408 -77.4133 29° Northeast 319 367 10,100 -240 Descending Washington Center
03:45PM 38.3208 -77.3647 25° Northeast 314 361 9,800 -1,020 Descending Washington Center
03:46PM 38.4083 -77.3589 North 306 352 8,100 -1,440 Descending Washington Center
03:47PM 38.4722 -77.4083 329° Northwest 279 321 6,900 -1,080 Descending Washington Center
03:48PM 38.5411 -77.4100 359° North 255 293 6,000 -1,080 Descending Washington Center
03:49PM 38.6100 -77.3931 11° North 250 288 4,800 -1,200 Descending Washington Center
03:49PM 38.6667 -77.3833 North 248 285 4,000 -480 Descending Potomac TRACON
03:50PM 38.7333 -77.3667 11° North 248 285 4,000  Level Potomac TRACON
03:51PM 38.8000 -77.3500 11° North 244 281 4,000 -60 Level Potomac TRACON
03:52PM 38.8667 -77.3500 360° North 239 275 3,900 -540 Descending Potomac TRACON
03:53PM 38.9333 -77.3500 360° North 228 262 3,000 -480 Descending Potomac TRACON
03:54PM 39.0000 -77.3500 360° North 240 276 3,000 -60 Level Potomac TRACON
03:55PM 39.0667 -77.3500 360° North 225 259 2,900 -360 Descending Potomac TRACON
03:56PM 39.1167 -77.3833 333° Northwest 202 232 2,300 -480 Descending Potomac TRACON
03:57PM 39.1000 -77.4333 247° West 203 234 2,000 -180 Descending Potomac TRACON
03:58PM 39.0500 -77.4333 180° South 179 206 2,000 -420 Level Potomac TRACON
03:59PM 39.0000 -77.4333 180° South 161 185 1,200 -720 Descending Potomac TRACON
04:00PM 38.9667 -77.4333 180° South 133 153 500 -720 Descending Potomac TRACON